< < Back
Terminal Aerodrome Forecast


Current Version              Previous Versions:   1  2  3  4  5  6  7  8  9  

Terminal Aerodrome Forecast

061
FTUS44 KBMX 130136 AAA
TAFMGM
TAF AMD
KMGM 130136Z 1302/1324 30010KT P6SM SKC
     FM130600 34010KT P6SM SKC=



Latest METAR

868
SAUS80 KWBC 130900
MTRMGM
METAR KMGM 130853Z AUTO 33007KT 10SM CLR 06/M03 A3031 RMK AO2 SLP264
T00561033 51013


USA.gov is the U.S. government's official web portal to all federal, state and local government web resources and services.